Time;durP1;ratioP1;P1;durP2;ratioP2;P2;SDS_P1;SDS_P2;PMS_P1;PMS_P2;Temp;Humidity;BMP_temperature;BMP_pressure;BME280_temperature;BME280_humidity;BME280_pressure;Samples;Min_cycle;Max_cycle;Signal;HPM_P1;HPM_P2
2021/10/20 00:01:53;;;;;;;73.45;40.35;;;;;;;;;;5053221;28;20025;-51
2021/10/20 00:04:19;;;;;;;66.20;38.97;;;;;;;;;;5055650;28;20551;-48
2021/10/20 00:06:45;;;;;;;58.65;35.97;;;;;;;;;;5055489;28;20033;-44
2021/10/20 00:09:14;;;;;;;62.70;37.90;;;;;;;;;;5055244;28;20116;-46
2021/10/20 00:11:40;;;;;;;64.55;38.47;;;;;;;;;;5055559;28;20021;-49
2021/10/20 00:14:06;;;;;;;70.38;41.88;;;;;;;;;;5055368;28;20025;-47
2021/10/20 00:16:32;;;;;;;63.70;37.30;;;;;;;;;;5055332;28;20362;-48
2021/10/20 00:18:58;;;;;;;65.22;39.17;;;;;;;;;;5054810;28;20024;-46
2021/10/20 00:21:26;;;;;;;61.28;36.28;;;;;;;;;;5055275;28;20080;-50
2021/10/20 00:23:53;;;;;;;56.97;36.53;;;;;;;;;;5055000;28;20049;-51
2021/10/20 00:26:19;;;;;;;61.90;37.05;;;;;;;;;;5054725;28;20033;-48
2021/10/20 00:28:45;;;;;;;55.83;36.55;;;;;;;;;;5055101;28;20083;-51
2021/10/20 00:31:14;;;;;;;67.68;37.85;;;;;;;;;;5055013;28;20071;-52
2021/10/20 00:33:40;;;;;;;61.55;36.17;;;;;;;;;;5055109;28;20051;-46
2021/10/20 00:36:06;;;;;;;63.17;36.17;;;;;;;;;;5054613;28;20440;-51
2021/10/20 00:38:32;;;;;;;63.83;36.13;;;;;;;;;;5054845;28;20025;-48
2021/10/20 00:40:58;;;;;;;65.57;37.05;;;;;;;;;;5054996;28;20408;-50
2021/10/20 00:43:25;;;;;;;55.15;33.53;;;;;;;;;;5054865;28;20024;-51
2021/10/20 00:45:51;;;;;;;58.20;35.40;;;;;;;;;;5055054;28;20021;-46
2021/10/20 00:48:17;;;;;;;61.97;35.42;;;;;;;;;;5054835;28;20028;-45
2021/10/20 00:50:44;;;;;;;60.30;34.20;;;;;;;;;;5054003;28;20547;-48
2021/10/20 00:53:10;;;;;;;62.42;34.75;;;;;;;;;;5054784;28;20100;-46
2021/10/20 00:55:39;;;;;;;56.40;35.17;;;;;;;;;;5054840;28;20053;-49
2021/10/20 00:58:05;;;;;;;56.80;34.55;;;;;;;;;;5054685;28;20477;-49
2021/10/20 01:00:31;;;;;;;60.83;34.65;;;;;;;;;;5054570;28;20541;-48
2021/10/20 01:02:57;;;;;;;58.65;36.67;;;;;;;;;;5054585;28;20473;-45
2021/10/20 01:05:26;;;;;;;59.42;36.25;;;;;;;;;;5054532;28;20021;-48
2021/10/20 01:07:52;;;;;;;59.03;35.00;;;;;;;;;;5054392;28;20104;-46
2021/10/20 01:10:19;;;;;;;66.65;37.58;;;;;;;;;;5054448;28;20033;-47
2021/10/20 01:12:45;;;;;;;55.72;35.92;;;;;;;;;;5054040;28;20032;-48
2021/10/20 01:15:34;;;;;;;56.00;35.35;;;;;;;;;;5054223;28;20092;-47
2021/10/20 01:18:00;;;;;;;55.50;34.47;;;;;;;;;;5054329;28;20024;-47
2021/10/20 01:20:30;;;;;;;55.40;35.00;;;;;;;;;;5054246;28;20025;-47
2021/10/20 01:22:58;;;;;;;62.03;36.38;;;;;;;;;;5054199;28;20025;-47
2021/10/20 01:25:24;;;;;;;60.80;35.90;;;;;;;;;;5053788;28;20071;-47
2021/10/20 01:27:51;;;;;;;61.47;37.58;;;;;;;;;;5054026;28;20025;-47
2021/10/20 01:30:17;;;;;;;59.67;36.85;;;;;;;;;;5053859;28;20024;-46
2021/10/20 01:32:43;;;;;;;56.15;37.28;;;;;;;;;;5053992;28;20024;-48
2021/10/20 01:35:09;;;;;;;58.50;36.70;;;;;;;;;;5053864;28;20033;-47
2021/10/20 01:37:36;;;;;;;59.95;36.28;;;;;;;;;;5052710;28;20021;-46
2021/10/20 01:40:03;;;;;;;58.72;35.72;;;;;;;;;;5053796;28;20473;-46
2021/10/20 01:42:29;;;;;;;53.80;34.85;;;;;;;;;;5053867;28;20427;-47
2021/10/20 01:44:56;;;;;;;58.40;36.28;;;;;;;;;;5053803;28;20422;-46
2021/10/20 01:47:22;;;;;;;60.55;36.10;;;;;;;;;;5052806;28;20063;-47
2021/10/20 01:49:49;;;;;;;60.58;36.40;;;;;;;;;;5053387;28;20141;-46
2021/10/20 01:52:16;;;;;;;57.08;36.55;;;;;;;;;;5053777;28;20032;-45
2021/10/20 01:54:44;;;;;;;59.70;36.75;;;;;;;;;;5053482;28;20036;-47
2021/10/20 01:57:10;;;;;;;58.65;37.15;;;;;;;;;;5053684;28;20028;-51
2021/10/20 01:59:36;;;;;;;59.28;35.42;;;;;;;;;;5053243;28;20021;-46
2021/10/20 02:02:03;;;;;;;62.30;37.65;;;;;;;;;;5053505;28;20376;-46
2021/10/20 02:04:29;;;;;;;53.83;35.60;;;;;;;;;;5053518;28;20032;-47
2021/10/20 02:06:57;;;;;;;63.22;37.53;;;;;;;;;;5053192;28;20417;-47
2021/10/20 02:09:23;;;;;;;55.47;35.85;;;;;;;;;;5053311;28;20515;-45
2021/10/20 02:11:49;;;;;;;55.35;36.03;;;;;;;;;;5053393;28;20065;-47
2021/10/20 02:14:15;;;;;;;52.78;32.67;;;;;;;;;;5053280;28;20025;-47
2021/10/20 02:16:41;;;;;;;54.70;32.75;;;;;;;;;;5053248;28;20399;-46
2021/10/20 02:19:08;;;;;;;53.97;33.00;;;;;;;;;;5053109;28;20078;-45
2021/10/20 02:21:34;;;;;;;55.17;34.92;;;;;;;;;;5053256;28;20039;-44
2021/10/20 02:24:00;;;;;;;60.00;35.60;;;;;;;;;;5052988;28;20029;-45
2021/10/20 02:26:26;;;;;;;58.83;36.22;;;;;;;;;;5053308;28;20029;-46
2021/10/20 02:28:52;;;;;;;58.53;35.15;;;;;;;;;;5052923;28;20013;-46
2021/10/20 02:31:18;;;;;;;54.85;33.75;;;;;;;;;;5053050;28;20029;-46
2021/10/20 02:33:44;;;;;;;57.58;35.97;;;;;;;;;;5053072;28;20095;-46
2021/10/20 02:36:10;;;;;;;53.53;33.38;;;;;;;;;;5052890;28;20036;-49
2021/10/20 02:38:36;;;;;;;56.67;34.72;;;;;;;;;;5052840;28;20120;-47
2021/10/20 02:41:02;;;;;;;56.10;34.72;;;;;;;;;;5053051;28;20021;-49
2021/10/20 02:43:29;;;;;;;56.38;35.05;;;;;;;;;;5052885;28;20028;-46
2021/10/20 02:45:55;;;;;;;57.67;35.45;;;;;;;;;;5053041;28;20032;-46
2021/10/20 02:48:21;;;;;;;57.60;34.90;;;;;;;;;;5052983;28;20029;-47
2021/10/20 02:50:49;;;;;;;52.63;34.90;;;;;;;;;;5052760;28;20036;-46
2021/10/20 02:53:15;;;;;;;60.55;35.88;;;;;;;;;;5053122;28;20047;-46
2021/10/20 02:55:41;;;;;;;60.97;35.60;;;;;;;;;;5052737;28;20083;-46
2021/10/20 02:58:07;;;;;;;60.28;35.88;;;;;;;;;;5053653;28;20025;-46
2021/10/20 03:00:36;;;;;;;58.60;37.08;;;;;;;;;;5057128;28;20025;-46
2021/10/20 03:03:02;;;;;;;62.05;37.08;;;;;;;;;;5056938;28;20032;-46
2021/10/20 03:05:28;;;;;;;60.55;36.92;;;;;;;;;;5056907;28;20021;-47
2021/10/20 03:07:56;;;;;;;64.38;38.42;;;;;;;;;;5055570;28;20029;-47
2021/10/20 03:10:23;;;;;;;62.63;37.65;;;;;;;;;;5056799;28;20155;-47
2021/10/20 03:12:49;;;;;;;68.40;38.60;;;;;;;;;;5056780;28;20025;-46
2021/10/20 03:15:15;;;;;;;65.97;38.22;;;;;;;;;;5056698;28;20025;-47
2021/10/20 03:17:41;;;;;;;56.88;35.88;;;;;;;;;;5056577;28;20491;-46
2021/10/20 03:20:09;;;;;;;59.85;36.25;;;;;;;;;;5056562;28;20041;-47
2021/10/20 03:22:41;;;;;;;61.35;36.55;;;;;;;;;;5056825;28;20368;-46
2021/10/20 03:25:08;;;;;;;62.78;36.83;;;;;;;;;;5056326;28;20049;-46
2021/10/20 03:27:39;;;;;;;67.68;37.53;;;;;;;;;;5056514;28;20032;-48
2021/10/20 03:30:06;;;;;;;66.13;38.65;;;;;;;;;;5056212;28;20045;-45
2021/10/20 03:32:32;;;;;;;67.53;38.22;;;;;;;;;;5056329;28;20036;-46
2021/10/20 03:34:58;;;;;;;62.20;39.13;;;;;;;;;;5056239;28;20104;-46
2021/10/20 03:37:24;;;;;;;61.80;37.78;;;;;;;;;;5056539;28;20357;-46
2021/10/20 03:39:50;;;;;;;64.65;39.53;;;;;;;;;;5056391;28;20060;-47
2021/10/20 03:42:16;;;;;;;63.78;37.95;;;;;;;;;;5056237;28;20024;-46
2021/10/20 03:44:43;;;;;;;68.45;37.47;;;;;;;;;;5056121;28;20025;-45
2021/10/20 03:47:09;;;;;;;60.00;37.72;;;;;;;;;;5056202;28;20017;-46
2021/10/20 03:49:37;;;;;;;62.60;37.28;;;;;;;;;;5056001;28;20033;-47
2021/10/20 03:52:06;;;;;;;62.63;37.35;;;;;;;;;;5055941;28;20052;-48
2021/10/20 03:54:32;;;;;;;64.03;37.08;;;;;;;;;;5055953;28;20017;-45
2021/10/20 03:57:00;;;;;;;63.85;38.85;;;;;;;;;;5055973;28;20056;-47
2021/10/20 03:59:26;;;;;;;66.47;38.40;;;;;;;;;;5055685;28;20029;-46
2021/10/20 04:01:52;;;;;;;62.35;39.05;;;;;;;;;;5055703;28;20059;-46
2021/10/20 04:04:19;;;;;;;64.82;41.88;;;;;;;;;;5055676;28;20029;-46
2021/10/20 04:06:45;;;;;;;67.10;41.50;;;;;;;;;;5055552;28;20028;-46
2021/10/20 04:09:12;;;;;;;70.03;42.35;;;;;;;;;;5055258;28;20106;-46
2021/10/20 04:11:38;;;;;;;75.07;42.75;;;;;;;;;;5054976;28;20108;-46
2021/10/20 04:14:04;;;;;;;72.65;41.25;;;;;;;;;;5055439;28;20082;-46
2021/10/20 04:16:30;;;;;;;70.78;41.83;;;;;;;;;;5055382;28;20021;-46
2021/10/20 04:18:56;;;;;;;73.50;42.92;;;;;;;;;;5055417;28;20052;-51
2021/10/20 04:21:22;;;;;;;72.97;43.42;;;;;;;;;;5055182;28;20024;-46
2021/10/20 04:23:48;;;;;;;74.60;43.38;;;;;;;;;;5055283;28;20029;-47
2021/10/20 04:26:14;;;;;;;65.53;43.10;;;;;;;;;;5055481;28;20123;-46
2021/10/20 04:28:40;;;;;;;69.13;44.50;;;;;;;;;;5055301;28;20097;-46
2021/10/20 04:31:06;;;;;;;79.13;45.10;;;;;;;;;;5055136;28;20033;-47
2021/10/20 04:33:33;;;;;;;74.30;46.33;;;;;;;;;;5054992;28;20032;-49
2021/10/20 04:36:01;;;;;;;72.10;45.15;;;;;;;;;;5055166;28;20036;-47
2021/10/20 04:38:30;;;;;;;71.40;44.85;;;;;;;;;;5055004;28;20032;-49
2021/10/20 04:40:56;;;;;;;75.97;45.45;;;;;;;;;;5055192;28;20059;-46
2021/10/20 04:43:22;;;;;;;76.72;45.83;;;;;;;;;;5054990;28;20523;-45
2021/10/20 04:45:51;;;;;;;74.10;46.97;;;;;;;;;;5054895;28;20029;-45
2021/10/20 04:48:17;;;;;;;79.95;46.05;;;;;;;;;;5054926;28;20021;-50
2021/10/20 04:50:43;;;;;;;79.20;47.95;;;;;;;;;;5054782;28;20044;-46
2021/10/20 04:53:09;;;;;;;80.78;48.15;;;;;;;;;;5054820;28;20059;-46
2021/10/20 04:55:37;;;;;;;85.47;48.33;;;;;;;;;;5054852;28;20029;-46
2021/10/20 04:58:07;;;;;;;79.43;47.42;;;;;;;;;;5054671;28;20025;-45
2021/10/20 05:00:34;;;;;;;89.63;48.75;;;;;;;;;;5054525;28;20092;-45
2021/10/20 05:03:00;;;;;;;90.00;51.20;;;;;;;;;;5053662;28;20020;-46
2021/10/20 05:05:27;;;;;;;91.32;49.90;;;;;;;;;;5054840;28;20040;-46
2021/10/20 05:07:54;;;;;;;91.45;51.60;;;;;;;;;;5054439;28;20021;-45
2021/10/20 05:10:21;;;;;;;86.25;50.22;;;;;;;;;;5054308;28;20087;-47
2021/10/20 05:12:50;;;;;;;79.55;49.28;;;;;;;;;;5054652;28;20032;-46
2021/10/20 05:15:17;;;;;;;89.20;53.45;;;;;;;;;;5054172;28;20025;-45
2021/10/20 05:17:43;;;;;;;83.57;48.45;;;;;;;;;;5054288;28;20028;-48
2021/10/20 05:20:13;;;;;;;75.35;46.72;;;;;;;;;;5054717;28;20032;-46
2021/10/20 05:22:39;;;;;;;80.30;52.28;;;;;;;;;;5053993;28;20039;-45
2021/10/20 05:25:06;;;;;;;79.90;47.08;;;;;;;;;;5053951;28;20084;-45
2021/10/20 05:27:33;;;;;;;69.90;44.67;;;;;;;;;;5054260;28;20036;-46
2021/10/20 05:29:59;;;;;;;77.13;44.97;;;;;;;;;;5053986;28;20029;-46
2021/10/20 05:32:28;;;;;;;66.55;42.90;;;;;;;;;;5053936;28;20059;-50
2021/10/20 05:34:55;;;;;;;68.50;41.50;;;;;;;;;;5053918;28;20017;-50
2021/10/20 05:37:21;;;;;;;64.25;42.90;;;;;;;;;;5054080;28;20032;-51
2021/10/20 05:39:48;;;;;;;70.15;44.05;;;;;;;;;;5053922;28;20472;-50
2021/10/20 05:42:15;;;;;;;72.28;46.03;;;;;;;;;;5053751;28;20113;-52
2021/10/20 05:44:41;;;;;;;67.72;42.60;;;;;;;;;;5053775;28;20017;-48
2021/10/20 05:47:10;;;;;;;67.85;42.20;;;;;;;;;;5053703;28;20031;-47
2021/10/20 05:49:36;;;;;;;61.97;41.33;;;;;;;;;;5053697;28;20036;-48
2021/10/20 05:52:03;;;;;;;60.17;39.50;;;;;;;;;;5053978;28;20461;-47
2021/10/20 05:54:29;;;;;;;53.88;37.90;;;;;;;;;;5053936;28;20080;-48
2021/10/20 05:56:55;;;;;;;59.53;39.55;;;;;;;;;;5053616;28;20040;-48
2021/10/20 05:59:24;;;;;;;54.53;37.30;;;;;;;;;;5053706;28;20028;-47
2021/10/20 06:01:50;;;;;;;58.45;38.58;;;;;;;;;;5053493;28;20063;-48
2021/10/20 06:04:17;;;;;;;53.45;36.95;;;;;;;;;;5052848;28;20017;-47
2021/10/20 06:06:43;;;;;;;53.08;37.92;;;;;;;;;;5053650;28;20029;-48
2021/10/20 06:09:10;;;;;;;60.38;37.15;;;;;;;;;;5053528;28;20105;-51
2021/10/20 06:11:39;;;;;;;52.25;36.60;;;;;;;;;;5053673;28;20040;-48
2021/10/20 06:14:05;;;;;;;48.50;34.97;;;;;;;;;;5053465;28;20032;-50
2021/10/20 06:16:35;;;;;;;53.08;36.28;;;;;;;;;;5053327;28;20354;-47
2021/10/20 06:19:01;;;;;;;53.05;36.88;;;;;;;;;;5053522;28;20384;-47
2021/10/20 06:21:27;;;;;;;51.65;36.63;;;;;;;;;;5053171;28;20025;-47
2021/10/20 06:23:53;;;;;;;54.47;35.65;;;;;;;;;;5053276;28;20057;-51
2021/10/20 06:26:19;;;;;;;62.08;44.78;;;;;;;;;;5053310;28;20108;-47
2021/10/20 06:28:45;;;;;;;58.63;40.80;;;;;;;;;;5053119;28;20029;-47
2021/10/20 06:31:11;;;;;;;60.80;41.42;;;;;;;;;;5052985;28;20075;-48
2021/10/20 06:33:40;;;;;;;60.13;38.83;;;;;;;;;;5052595;28;20031;-47
2021/10/20 06:36:08;;;;;;;54.13;36.72;;;;;;;;;;5053157;28;20115;-48
2021/10/20 06:38:34;;;;;;;64.05;37.42;;;;;;;;;;5053195;28;20067;-49
2021/10/20 06:41:00;;;;;;;53.65;37.10;;;;;;;;;;5052948;28;20111;-47
2021/10/20 06:43:26;;;;;;;49.50;36.03;;;;;;;;;;5053009;28;20025;-48
2021/10/20 06:45:52;;;;;;;48.15;36.33;;;;;;;;;;5052948;28;20071;-48
2021/10/20 06:48:18;;;;;;;51.15;37.03;;;;;;;;;;5052928;28;20028;-47
2021/10/20 06:50:45;;;;;;;50.47;36.05;;;;;;;;;;5052966;28;20044;-47
2021/10/20 06:53:11;;;;;;;52.45;36.80;;;;;;;;;;5053065;28;20021;-49
2021/10/20 06:55:37;;;;;;;48.13;34.70;;;;;;;;;;5052890;28;20029;-51
2021/10/20 06:58:05;;;;;;;46.03;34.25;;;;;;;;;;5052976;28;20021;-48
2021/10/20 07:00:31;;;;;;;44.05;33.83;;;;;;;;;;5053094;28;20515;-48
2021/10/20 07:02:57;;;;;;;54.38;40.53;;;;;;;;;;5052803;28;20404;-49
2021/10/20 07:05:23;;;;;;;49.05;39.35;;;;;;;;;;5053052;28;20095;-49
2021/10/20 07:07:49;;;;;;;50.35;36.05;;;;;;;;;;5053042;28;20028;-48
2021/10/20 07:10:16;;;;;;;181.35;61.67;;;;;;;;;;5052729;28;20037;-56
2021/10/20 07:12:42;;;;;;;44.55;33.05;;;;;;;;;;5052816;28;20033;-47
2021/10/20 07:15:08;;;;;;;36.13;29.27;;;;;;;;;;5052743;28;20051;-46
2021/10/20 07:17:34;;;;;;;44.10;32.08;;;;;;;;;;5052788;28;20032;-45
2021/10/20 07:20:03;;;;;;;43.22;33.55;;;;;;;;;;5052829;28;20017;-46
2021/10/20 07:22:29;;;;;;;42.75;33.40;;;;;;;;;;5052782;28;20032;-45
2021/10/20 07:24:55;;;;;;;40.63;30.90;;;;;;;;;;5052543;28;20068;-46
2021/10/20 07:27:22;;;;;;;45.42;30.90;;;;;;;;;;5052770;28;20029;-46
2021/10/20 07:29:48;;;;;;;47.83;32.88;;;;;;;;;;5052631;28;20037;-46
2021/10/20 07:32:15;;;;;;;44.05;31.10;;;;;;;;;;5052669;28;20017;-50
2021/10/20 07:34:43;;;;;;;181.02;54.85;;;;;;;;;;5052526;28;20536;-48
2021/10/20 07:37:09;;;;;;;39.92;28.65;;;;;;;;;;5052674;28;20017;-48
2021/10/20 07:39:35;;;;;;;34.95;28.42;;;;;;;;;;5052390;28;20113;-48
2021/10/20 07:42:02;;;;;;;36.67;29.10;;;;;;;;;;5052626;28;20025;-52
2021/10/20 07:44:31;;;;;;;35.13;29.90;;;;;;;;;;5052542;28;20025;-49
2021/10/20 07:46:57;;;;;;;33.63;29.95;;;;;;;;;;5055743;28;20074;-49
2021/10/20 07:49:23;;;;;;;41.00;31.25;;;;;;;;;;5056153;28;20424;-52
2021/10/20 07:51:51;;;;;;;33.92;27.95;;;;;;;;;;5055919;28;20384;-50
2021/10/20 07:54:17;;;;;;;30.70;25.88;;;;;;;;;;5055893;28;20028;-49
2021/10/20 07:56:43;;;;;;;31.73;27.00;;;;;;;;;;5056039;28;20033;-50
2021/10/20 07:59:10;;;;;;;30.25;26.10;;;;;;;;;;5056176;28;20021;-52
2021/10/20 08:01:36;;;;;;;30.77;26.05;;;;;;;;;;5055706;28;20112;-47
2021/10/20 08:04:02;;;;;;;36.03;28.27;;;;;;;;;;5055635;28;20033;-48
2021/10/20 08:06:28;;;;;;;33.50;29.92;;;;;;;;;;5055687;28;20093;-50
2021/10/20 08:08:56;;;;;;;42.80;37.20;;;;;;;;;;5055565;28;20036;-46
2021/10/20 08:11:22;;;;;;;39.75;29.02;;;;;;;;;;5055468;28;20029;-51
2021/10/20 08:13:48;;;;;;;49.60;36.10;;;;;;;;;;5055557;28;20017;-48
2021/10/20 08:16:14;;;;;;;78.03;31.70;;;;;;;;;;5055421;28;20436;-49
2021/10/20 08:18:40;;;;;;;35.28;28.27;;;;;;;;;;5055487;28;20021;-49
2021/10/20 08:21:07;;;;;;;36.72;29.70;;;;;;;;;;5055434;28;20103;-49
2021/10/20 08:23:33;;;;;;;33.58;27.65;;;;;;;;;;5055279;28;20490;-48
2021/10/20 08:25:59;;;;;;;38.67;30.60;;;;;;;;;;5055175;28;20044;-50
2021/10/20 08:28:25;;;;;;;33.67;27.08;;;;;;;;;;5055252;28;20021;-50
2021/10/20 08:30:51;;;;;;;34.28;27.95;;;;;;;;;;5050577;28;20037;-50
2021/10/20 08:33:17;;;;;;;32.75;27.20;;;;;;;;;;5054893;28;20029;-49
2021/10/20 08:35:44;;;;;;;27.73;24.45;;;;;;;;;;5055222;28;20029;-50
2021/10/20 08:38:10;;;;;;;42.40;31.80;;;;;;;;;;5054976;28;20104;-50
2021/10/20 08:40:47;;;;;;;40.78;30.20;;;;;;;;;;5054499;28;20373;-49
2021/10/20 08:43:14;;;;;;;46.63;34.30;;;;;;;;;;5054795;28;20032;-50
2021/10/20 08:45:41;;;;;;;32.30;25.27;;;;;;;;;;5054774;28;20476;-49
2021/10/20 08:48:07;;;;;;;34.22;25.85;;;;;;;;;;5054076;28;20025;-48
2021/10/20 08:50:34;;;;;;;32.50;23.88;;;;;;;;;;5054937;28;20040;-48
2021/10/20 08:53:01;;;;;;;33.92;21.88;;;;;;;;;;5054739;28;20032;-49
2021/10/20 08:55:27;;;;;;;54.60;36.05;;;;;;;;;;5054465;28;20036;-48
2021/10/20 08:57:54;;;;;;;66.25;42.97;;;;;;;;;;5054371;28;20366;-47
2021/10/20 09:00:21;;;;;;;44.83;30.33;;;;;;;;;;5054241;28;20032;-47
2021/10/20 09:02:47;;;;;;;36.75;25.23;;;;;;;;;;5054448;28;20013;-48
2021/10/20 09:05:18;;;;;;;33.20;24.42;;;;;;;;;;5054496;28;20029;-48
2021/10/20 09:07:44;;;;;;;;;;;;;;;;;;5054883;28;20526;-48
2021/10/20 09:10:11;;;;;;;39.00;24.75;;;;;;;;;;5054473;28;19912;-49
2021/10/20 09:12:37;;;;;;;53.88;34.85;;;;;;;;;;5054455;28;20055;-49
2021/10/20 09:15:08;;;;;;;38.70;22.38;;;;;;;;;;5054205;28;20035;-50
2021/10/20 09:17:44;;;;;;;44.67;30.23;;;;;;;;;;5054655;28;20110;-48
2021/10/20 09:20:17;;;;;;;33.42;23.35;;;;;;;;;;5053975;28;20539;-50
2021/10/20 09:22:56;;;;;;;53.22;22.60;;;;;;;;;;5054400;28;20032;-50
2021/10/20 09:25:27;;;;;;;26.42;20.42;;;;;;;;;;5053899;28;20057;-47
2021/10/20 09:27:53;;;;;;;30.20;21.67;;;;;;;;;;5052994;28;20045;-48
2021/10/20 09:30:20;;;;;;;32.83;22.88;;;;;;;;;;5054181;28;20381;-46
2021/10/20 09:32:49;;;;;;;33.35;22.13;;;;;;;;;;5053879;28;20091;-46
2021/10/20 09:35:15;;;;;;;21.75;18.02;;;;;;;;;;5054086;28;20025;-48
2021/10/20 09:37:41;;;;;;;28.90;17.52;;;;;;;;;;5054039;28;20055;-48
2021/10/20 09:40:09;;;;;;;22.55;16.90;;;;;;;;;;5053971;28;20017;-47
2021/10/20 09:42:49;;;;;;;29.75;19.70;;;;;;;;;;5053824;28;20108;-48
2021/10/20 09:45:16;;;;;;;28.05;20.75;;;;;;;;;;5053785;28;20057;-48
2021/10/20 09:47:42;;;;;;;38.72;21.13;;;;;;;;;;5052888;28;20542;-49
2021/10/20 09:50:08;;;;;;;24.73;17.08;;;;;;;;;;5053871;28;20396;-47
2021/10/20 09:52:50;;;;;;;38.60;24.63;;;;;;;;;;5053775;28;20021;-48
2021/10/20 09:55:27;;;;;;;35.75;21.67;;;;;;;;;;5053043;28;20037;-47
2021/10/20 09:57:55;;;;;;;22.73;16.50;;;;;;;;;;5053289;28;20029;-47
2021/10/20 10:00:21;;;;;;;35.08;23.10;;;;;;;;;;5052912;28;20025;-47
2021/10/20 10:02:47;;;;;;;24.38;15.75;;;;;;;;;;5053668;28;20028;-49
2021/10/20 10:05:14;;;;;;;19.08;14.80;;;;;;;;;;5053476;28;20029;-48
2021/10/20 10:07:40;;;;;;;21.00;14.45;;;;;;;;;;5052723;28;20366;-47
2021/10/20 10:10:06;;;;;;;24.10;16.10;;;;;;;;;;5053402;28;20067;-47
2021/10/20 10:12:32;;;;;;;16.95;14.82;;;;;;;;;;5053598;28;20409;-47
2021/10/20 10:15:07;;;;;;;16.75;14.10;;;;;;;;;;5053730;28;20442;-47
2021/10/20 10:17:34;;;;;;;28.35;15.93;;;;;;;;;;5053343;28;20435;-48
2021/10/20 10:20:05;;;;;;;20.67;14.27;;;;;;;;;;5053376;28;20473;-46
2021/10/20 10:22:31;;;;;;;33.05;23.27;;;;;;;;;;5053188;28;20028;-47
2021/10/20 10:25:02;;;;;;;20.02;13.15;;;;;;;;;;5052749;28;20045;-46
2021/10/20 10:27:30;;;;;;;149.52;92.20;;;;;;;;;;5053179;28;20067;-47
2021/10/20 10:30:00;;;;;;;26.20;17.65;;;;;;;;;;5053175;28;20039;-48
2021/10/20 10:32:27;;;;;;;22.67;14.80;;;;;;;;;;5053166;28;20507;-49
2021/10/20 10:34:53;;;;;;;23.13;16.55;;;;;;;;;;5053094;28;20388;-47
2021/10/20 10:37:30;;;;;;;28.02;19.70;;;;;;;;;;5053007;28;20496;-47
2021/10/20 10:39:56;;;;;;;19.10;13.73;;;;;;;;;;5052993;28;20075;-48
2021/10/20 10:42:35;;;;;;;22.20;14.02;;;;;;;;;;5053129;28;20025;-47
2021/10/20 10:45:24;;;;;;;19.77;14.15;;;;;;;;;;5053029;28;20035;-47
2021/10/20 10:48:00;;;;;;;14.07;11.57;;;;;;;;;;5052915;28;20045;-47
2021/10/20 10:50:39;;;;;;;14.57;11.57;;;;;;;;;;5052028;28;20075;-48
2021/10/20 10:53:05;;;;;;;16.83;12.63;;;;;;;;;;5052656;28;20075;-48
2021/10/20 10:55:31;;;;;;;16.00;11.95;;;;;;;;;;5052780;28;20052;-47
2021/10/20 10:58:02;;;;;;;17.90;12.60;;;;;;;;;;5052877;28;20447;-47
2021/10/20 11:00:36;;;;;;;19.35;12.23;;;;;;;;;;5052755;28;20423;-48
2021/10/20 11:03:13;;;;;;;32.95;21.77;;;;;;;;;;5052820;28;20533;-47
2021/10/20 11:05:39;;;;;;;15.15;10.73;;;;;;;;;;5052747;28;20469;-47
2021/10/20 11:08:12;;;;;;;13.88;9.35;;;;;;;;;;5052028;28;20099;-47
2021/10/20 11:10:39;;;;;;;20.67;12.32;;;;;;;;;;5052761;28;20120;-47
2021/10/20 11:13:05;;;;;;;14.88;10.63;;;;;;;;;;5051936;28;20049;-48
2021/10/20 11:15:32;;;;;;;19.67;13.05;;;;;;;;;;5052219;28;20108;-47
2021/10/20 11:18:01;;;;;;;13.57;10.23;;;;;;;;;;5049572;28;20528;-47
2021/10/20 11:20:28;;;;;;;13.35;9.35;;;;;;;;;;5055045;28;20518;-47
2021/10/20 11:22:56;;;;;;;13.23;9.40;;;;;;;;;;5055900;28;20511;-47
2021/10/20 11:25:23;;;;;;;15.57;9.32;;;;;;;;;;5055530;28;20072;-47
2021/10/20 11:27:53;;;;;;;11.07;8.15;;;;;;;;;;5055611;28;20536;-47
2021/10/20 11:30:21;;;;;;;13.48;9.85;;;;;;;;;;5053227;28;20033;-48
2021/10/20 11:32:48;;;;;;;16.48;10.32;;;;;;;;;;5055926;28;20035;-46
2021/10/20 11:35:16;;;;;;;20.23;11.73;;;;;;;;;;5055852;28;20051;-47
2021/10/20 11:37:44;;;;;;;15.07;9.98;;;;;;;;;;5055928;28;20070;-47
2021/10/20 11:40:11;;;;;;;15.95;9.05;;;;;;;;;;5055789;28;20389;-47
2021/10/20 11:42:42;;;;;;;15.32;10.90;;;;;;;;;;5055919;28;20086;-47
2021/10/20 11:45:08;;;;;;;19.60;11.03;;;;;;;;;;5056472;28;20074;-47
2021/10/20 11:47:38;;;;;;;16.08;10.20;;;;;;;;;;5056377;28;20253;-48
2021/10/20 11:50:04;;;;;;;19.38;12.57;;;;;;;;;;5055460;28;20021;-47
2021/10/20 11:52:33;;;;;;;24.92;16.35;;;;;;;;;;5055460;28;20510;-47
2021/10/20 11:55:00;;;;;;;25.02;12.48;;;;;;;;;;5055271;28;20028;-47
2021/10/20 11:57:26;;;;;;;28.75;18.58;;;;;;;;;;5052809;28;20029;-47
2021/10/20 11:59:52;;;;;;;21.75;9.60;;;;;;;;;;5055522;28;20017;-47
2021/10/20 12:02:18;;;;;;;27.58;16.83;;;;;;;;;;5055379;28;20477;-47
2021/10/20 12:04:45;;;;;;;16.95;8.95;;;;;;;;;;5055408;28;20385;-47
2021/10/20 12:07:13;;;;;;;17.10;9.65;;;;;;;;;;5054574;28;20036;-48
2021/10/20 12:09:43;;;;;;;19.13;8.60;;;;;;;;;;5053488;28;20381;-47
2021/10/20 12:12:11;;;;;;;23.43;14.07;;;;;;;;;;5053061;28;20033;-48
2021/10/20 12:14:38;;;;;;;15.55;8.82;;;;;;;;;;5054907;28;20083;-47
2021/10/20 12:17:07;;;;;;;14.50;9.73;;;;;;;;;;5055206;28;20029;-47
2021/10/20 12:19:34;;;;;;;27.98;16.67;;;;;;;;;;5055003;28;20021;-47
2021/10/20 12:22:03;;;;;;;14.98;9.68;;;;;;;;;;5055115;28;20396;-46
2021/10/20 12:24:42;;;;;;;17.83;10.10;;;;;;;;;;5054456;28;20124;-48
2021/10/20 12:27:09;;;;;;;12.60;7.70;;;;;;;;;;5053942;28;20041;-47
2021/10/20 12:29:36;;;;;;;15.15;8.30;;;;;;;;;;5054893;28;20049;-47
2021/10/20 12:32:02;;;;;;;13.60;9.02;;;;;;;;;;5053937;28;20075;-47
2021/10/20 12:34:28;;;;;;;12.77;8.00;;;;;;;;;;5054690;28;20071;-47
2021/10/20 12:36:55;;;;;;;18.98;8.25;;;;;;;;;;5054502;28;20023;-46
2021/10/20 12:39:21;;;;;;;15.75;7.95;;;;;;;;;;5054740;28;20022;-46
2021/10/20 12:41:47;;;;;;;14.15;7.88;;;;;;;;;;5054660;28;20052;-46
2021/10/20 12:44:14;;;;;;;13.13;7.85;;;;;;;;;;5054571;28;20028;-46
2021/10/20 12:46:43;;;;;;;9.70;7.00;;;;;;;;;;5054647;28;20427;-47
2021/10/20 12:49:10;;;;;;;11.07;7.05;;;;;;;;;;5054500;28;20124;-47
2021/10/20 12:51:38;;;;;;;15.25;7.43;;;;;;;;;;5054279;28;20465;-47
2021/10/20 12:54:05;;;;;;;11.98;8.10;;;;;;;;;;5054050;28;20039;-47
2021/10/20 12:56:32;;;;;;;16.65;8.13;;;;;;;;;;5054496;28;20077;-46
2021/10/20 12:59:09;;;;;;;17.48;10.75;;;;;;;;;;5051782;28;20534;-47
2021/10/20 13:01:36;;;;;;;23.20;11.40;;;;;;;;;;5054220;28;20021;-48
2021/10/20 13:04:02;;;;;;;21.48;11.20;;;;;;;;;;5054311;28;20381;-47
2021/10/20 13:06:28;;;;;;;19.63;11.68;;;;;;;;;;5054227;28;20028;-47
2021/10/20 13:08:54;;;;;;;20.75;13.93;;;;;;;;;;5053693;28;20078;-48
2021/10/20 13:11:21;;;;;;;14.70;8.80;;;;;;;;;;5054093;28;20104;-46
2021/10/20 13:13:47;;;;;;;13.07;9.85;;;;;;;;;;5054301;28;20115;-47
2021/10/20 13:16:13;;;;;;;14.48;8.65;;;;;;;;;;5053893;28;20025;-47
2021/10/20 13:18:39;;;;;;;43.20;25.05;;;;;;;;;;5053946;28;20017;-47
2021/10/20 13:21:05;;;;;;;18.63;10.18;;;;;;;;;;5053867;28;20057;-47
2021/10/20 13:23:35;;;;;;;10.00;7.15;;;;;;;;;;5053893;28;20075;-47
2021/10/20 13:26:03;;;;;;;17.27;11.07;;;;;;;;;;5051509;28;20048;-47
2021/10/20 13:28:29;;;;;;;16.85;10.80;;;;;;;;;;5053945;28;20124;-46
2021/10/20 13:30:55;;;;;;;16.02;9.13;;;;;;;;;;5053721;28;20032;-47
2021/10/20 13:33:21;;;;;;;17.40;12.27;;;;;;;;;;5053732;28;20377;-48
2021/10/20 13:35:47;;;;;;;11.80;7.88;;;;;;;;;;5053536;28;20052;-47
2021/10/20 13:38:14;;;;;;;10.25;7.20;;;;;;;;;;5053548;28;20104;-46
2021/10/20 13:40:40;;;;;;;14.95;8.10;;;;;;;;;;5053623;28;20467;-45
2021/10/20 13:43:07;;;;;;;14.38;8.00;;;;;;;;;;5052456;28;20036;-46
2021/10/20 13:45:34;;;;;;;22.25;9.95;;;;;;;;;;5053392;28;20056;-47
2021/10/20 13:48:03;;;;;;;16.08;8.55;;;;;;;;;;5053123;28;20032;-47
2021/10/20 13:50:29;;;;;;;20.25;10.75;;;;;;;;;;5053042;28;20036;-47
2021/10/20 13:52:55;;;;;;;15.98;10.40;;;;;;;;;;5053133;28;20350;-47
2021/10/20 13:55:24;;;;;;;16.42;8.68;;;;;;;;;;5053024;28;20021;-47
2021/10/20 13:57:50;;;;;;;16.58;8.73;;;;;;;;;;5053487;28;20107;-46
2021/10/20 14:00:17;;;;;;;16.00;9.13;;;;;;;;;;5053504;28;20781;-47
2021/10/20 14:02:43;;;;;;;20.10;8.70;;;;;;;;;;5053479;28;20029;-47
2021/10/20 14:05:09;;;;;;;16.75;9.25;;;;;;;;;;5053546;28;20053;-47
2021/10/20 14:07:35;;;;;;;24.63;9.90;;;;;;;;;;5053519;28;20029;-46
2021/10/20 14:10:01;;;;;;;16.23;8.35;;;;;;;;;;5053057;28;20025;-47
2021/10/20 14:12:28;;;;;;;21.90;12.25;;;;;;;;;;5053782;28;20033;-46
2021/10/20 14:14:55;;;;;;;22.83;12.07;;;;;;;;;;5053408;28;20029;-49
2021/10/20 14:17:22;;;;;;;25.77;16.42;;;;;;;;;;5053113;28;20032;-47
2021/10/20 14:19:48;;;;;;;15.70;10.40;;;;;;;;;;5053276;28;20017;-46